• Join FlightAware (Why Join?)
  • Login
  • US Flag 
04:03AM EDT


 

Airport Tracker/Info


-or-


 

Live Flight TrackerFlight Track Log ✈ N469S ✈ 01-May-2013 ✈ KLRP - KLEX

Flight Track Log - Related Links

Times and Time Zones

All times are in EDT time to prevent confusion due to time zone crossing. See the N469S flight status page for this flight to view local times or setup timezone preferences in your user account.

Time Position Orientation Groundspeed Altitude Reporting Facility
EDT Latitude Longitude Course Direction KTS MPH feet Rate Location/Type
01:52PM 40.0578 -76.5394 124° Southeast 144 166 7,200  Level New York Center
01:53PM 40.0447 -76.5956 253° West 150 173 8,000 720 Climbing New York Center
01:54PM 40.0383 -76.6383 259° West 150 173 8,700 840 Climbing New York Center
01:55PM 40.0228 -76.7019 252° West 155 178 9,700 780 Climbing New York Center
01:56PM 40.0117 -76.7553 255° West 155 178 10,400 780 Climbing New York Center
01:57PM -19.8601 -160.2216 124° Southeast  Level Estimated
01:57PM 40.0008 -76.8058 254° West 155 178 11,400  Level New York Center
01:58PM 39.9894 -76.8644 256° West 160 184 11,800 480 Climbing New York Center
01:59PM 39.9739 -76.9256 252° West 165 190 12,400 300 Climbing New York Center
02:00PM 39.9619 -76.9894 256° West 177 204 12,500  Climbing New York Center
02:01PM 39.9481 -77.0586 255° West 196 226 12,500  Level New York Center
02:03PM 39.9111 -77.2172 253° West 210 242 12,500  Level Washington Center
02:04PM 39.8956 -77.2897 254° West 215 247 12,500  Level Washington Center
02:05PM 39.8778 -77.3625 252° West 215 247 12,500  Level Washington Center
02:06PM 39.8622 -77.4350 254° West 215 247 12,500  Level Washington Center
02:07PM 39.8483 -77.5103 257° West 215 247 12,500  Level Washington Center
02:08PM 39.8328 -77.5828 254° West 215 247 12,500  Level Washington Center
02:09PM 39.8147 -77.6525 251° West 215 247 12,500  Level Washington Center
02:10PM 39.7989 -77.7306 255° West 215 247 12,500  Level Washington Center
02:11PM 39.7831 -77.8003 254° West 215 247 12,500  Level Washington Center
02:12PM 39.7672 -77.8725 254° West 220 253 12,500  Level Washington Center
02:13PM 39.7531 -77.9503 257° West 220 253 12,500  Level Washington Center
02:14PM 39.7350 -78.0228 252° West 220 253 12,500  Level Washington Center
02:15PM 39.7192 -78.0922 254° West 215 247 12,500  Level Washington Center
02:16PM 39.7050 -78.1672 256° West 215 247 12,500  Level Washington Center
02:17PM 39.6867 -78.2394 252° West 215 247 12,500  Level Washington Center
02:18PM 39.6706 -78.3117 254° West 215 247 12,500  Level Washington Center
02:19PM 39.6542 -78.3892 255° West 220 253 12,500  Level Washington Center
02:20PM 39.6336 -78.4639 250° West 220 253 12,500  Level Washington Center
02:21PM 39.6194 -78.5386 256° West 220 253 12,500  Level Washington Center
02:22PM 39.6008 -78.6161 253° West 220 253 12,500  Level Washington Center
02:23PM 39.5842 -78.6908 254° West 220 253 12,500  Level Washington Center
02:24PM 39.5656 -78.7681 253° West 220 253 12,500  Level Washington Center
02:25PM 39.5489 -78.8428 254° West 220 253 12,500  Level Washington Center
02:26PM 39.5322 -78.9228 255° West 220 253 12,500 -60 Level Washington Center
02:28PM 39.4972 -79.0672 253° West 198 228 12,400 -60 Descending Indianapolis Center
02:29PM 39.4764 -79.1583 254° West 223 257 12,400  Level Indianapolis Center
02:30PM 39.4650 -79.2225 257° West 225 259 12,400  Level Cleveland Center
02:31PM 39.4469 -79.2981 253° West 225 259 12,400  Level Cleveland Center
02:32PM 39.4292 -79.3819 255° West 225 259 12,400  Level Cleveland Center
02:33PM 39.4092 -79.4575 251° West 225 259 12,400  Level Cleveland Center
02:34PM 39.3892 -79.5383 252° West 225 259 12,400  Level Cleveland Center
02:35PM 39.3731 -79.6136 255° West 225 259 12,400  Level Cleveland Center
02:36PM 39.3550 -79.6919 253° West 225 259 12,400  Level Cleveland Center
02:37PM 39.3347 -79.7700 251° West 225 259 12,400  Level Cleveland Center
02:38PM 39.3164 -79.8453 253° West 225 259 12,400  Level Cleveland Center
02:39PM 39.2961 -79.9233 251° West 225 259 12,400  Level Cleveland Center
02:40PM 39.2778 -79.9986 253° West 225 259 12,400  Level Cleveland Center
02:41PM 39.2483 -80.1061 251° West 227 261 12,400  Level Indianapolis Center
02:42PM 39.2286 -80.1833 252° West 226 260 12,400  Level Indianapolis Center
02:43PM 39.2072 -80.2742 253° West 222 255 12,400  Level Indianapolis Center
02:44PM 39.1872 -80.3514 252° West 226 260 12,400  Level Indianapolis Center
02:46PM 39.1689 -80.4275 253° West 224 258 12,400  Level Indianapolis Center
02:47PM 39.1492 -80.5044 252° West 224 258 12,400  Level Indianapolis Center
02:48PM 39.1306 -80.5797 252° West 222 255 12,400  Level Indianapolis Center
02:49PM 39.1119 -80.6542 252° West 221 254 12,400  Level Indianapolis Center
02:50PM 39.0933 -80.7289 252° West 218 251 12,400  Level Indianapolis Center
02:51PM 39.0711 -80.8206 253° West 223 257 12,400  Level Indianapolis Center
02:52PM 39.0514 -80.8961 251° West 223 257 12,400  Level Indianapolis Center
02:53PM 39.0322 -80.9706 252° West 220 253 12,400  Level Indianapolis Center
02:54PM 39.0131 -81.0461 252° West 222 255 12,400  Level Indianapolis Center
02:55PM 38.9942 -81.1208 252° West 221 254 12,400  Level Indianapolis Center
02:56PM 38.9750 -81.1961 252° West 222 255 12,400  Level Indianapolis Center
02:57PM 38.9517 -81.2867 252° West 223 257 12,400  Level Indianapolis Center
02:58PM 38.9319 -81.3608 251° West 223 257 12,400  Level Indianapolis Center
02:59PM 38.9136 -81.4358 253° West 222 255 12,400  Level Indianapolis Center
03:00PM 38.8939 -81.5106 251° West 223 257 12,400  Level Indianapolis Center
03:01PM 38.8742 -81.5847 251° West 221 254 12,400  Level Indianapolis Center
03:02PM 38.8517 -81.6739 252° West 221 254 12,400  Level Indianapolis Center
03:03PM 38.8317 -81.7469 251° West 219 252 12,400  Level Indianapolis Center
03:04PM 38.8122 -81.8219 252° West 221 254 12,400  Level Indianapolis Center
03:05PM 38.7933 -81.8956 252° West 219 252 12,400  Level Indianapolis Center
03:06PM 38.7736 -81.9681 251° West 217 250 12,400  Level Indianapolis Center
03:07PM 38.7503 -82.0556 251° West 218 251 12,400  Level Indianapolis Center
03:08PM 38.7308 -82.1275 251° West 215 247 12,400 -60 Level Indianapolis Center
03:09PM 38.7117 -82.2003 251° West 215 247 12,300 -60 Descending Indianapolis Center
03:10PM 38.6925 -82.2742 252° West 218 251 12,300  Level Indianapolis Center
03:11PM 38.6728 -82.3464 251° West 217 250 12,300  Level Indianapolis Center
03:12PM 38.6528 -82.4186 250° West 215 247 12,300  Level Indianapolis Center
03:13PM 38.6322 -82.4978 252° West 215 247 12,300  Level Indianapolis Center
03:14PM 38.6131 -82.5686 251° West 213 245 12,300  Level Indianapolis Center
03:16PM 38.5894 -82.6528 250° West 214 246 12,300  Level Indianapolis Center
03:17PM 38.5697 -82.7247 251° West 214 246 12,300  Level Indianapolis Center
03:18PM 38.5508 -82.7969 252° West 214 246 12,300  Level Indianapolis Center
03:19PM 38.5314 -82.8681 251° West 213 245 12,300  Level Indianapolis Center
03:20PM 38.5119 -82.9406 251° West 214 246 12,300  Level Indianapolis Center
03:21PM 38.4883 -83.0247 250° West 216 249 12,300  Level Indianapolis Center
03:22PM 38.4686 -83.0958 251° West 213 245 12,300  Level Indianapolis Center
03:23PM 38.4483 -83.1672 250° West 215 247 12,300  Level Indianapolis Center
03:24PM 38.4289 -83.2400 251° West 216 249 12,300  Level Indianapolis Center
03:25PM 38.4092 -83.3114 251° West 214 246 12,300  Level Indianapolis Center
03:26PM 38.3861 -83.3931 250° West 211 243 12,300  Level Indianapolis Center
03:27PM 38.3661 -83.4650 250° West 212 244 12,300  Level Indianapolis Center
03:28PM 38.3464 -83.5353 250° West 212 244 12,300  Level Indianapolis Center
03:29PM 38.3261 -83.6033 249° West 207 238 12,300  Level Indianapolis Center
03:30PM 38.3072 -83.6736 251° West 207 238 12,300 -60 Level Indianapolis Center
03:31PM 38.2867 -83.7433 249° West 210 242 12,200 -420 Descending Indianapolis Center
03:32PM 38.2622 -83.8258 249° West 213 245 11,500 -780 Descending Indianapolis Center
03:33PM 38.2408 -83.9044 251° West 231 266 10,600 -1,080 Descending Indianapolis Center
03:34PM 38.2186 -83.9831 250° West 235 270 9,300 -1,200 Descending Indianapolis Center
03:35PM 38.1942 -84.0633 249° West 241 277 8,200 -960 Descending Indianapolis Center
03:36PM 38.1725 -84.1414 251° West 237 273 7,400 -900 Descending Indianapolis Center
03:37PM 38.1475 -84.2264 250° West 228 262 6,400 -1,020 Descending Indianapolis Center
03:38PM 38.1272 -84.2981 250° West 222 255 5,400 -1,020 Descending Indianapolis Center
03:39PM 38.1067 -84.3686 250° West 217 250 4,400 -960 Descending Indianapolis Center
03:40PM 38.0644 -84.4125 219° Southwest 212 244 3,500 -480 Descending Indianapolis Center
03:41PM 38.0278 -84.4567 224° Southwest 196 226 3,500 -60 Level Indianapolis Center
03:42PM 37.9925 -84.5003 224° Southwest 175 201 3,400  Descending Indianapolis Center
03:43PM 37.9819 -84.5447 253° West 156 180 3,500 -420 Climbing Indianapolis Center
03:44PM 37.9819 -84.5978 270° West 151 174 2,600 -480 Descending Indianapolis Center
03:45PM 37.9842 -84.6431 274° West 149 171 2,600  Level Indianapolis Center
03:47PM 38.0333 -84.6000 270° West  Level FlightAware Approximate
03:54PM 38.0368 -84.6086 270° West  Level Estimated